createdAt,value
2019-05-22T03:54:00.870Z,15.91
2019-05-22T03:56:33.006Z,15.86
2019-05-22T03:59:04.594Z,15.89
2019-05-22T04:01:36.509Z,15.85
2019-05-22T04:04:07.643Z,15.95
2019-05-22T04:06:40.452Z,15.93
2019-05-22T04:09:23.723Z,15.93
2019-05-22T04:11:55.349Z,15.93
2019-05-22T04:14:29.497Z,15.90
2019-05-22T04:17:00.903Z,15.93
2019-05-22T04:19:47.692Z,15.96
2019-05-22T04:22:06.362Z,15.95
2019-05-22T04:24:40.115Z,15.98
2019-05-22T04:27:12.653Z,15.91
2019-05-22T04:29:44.027Z,15.91
2019-05-22T04:32:23.066Z,15.91
2019-05-22T04:34:56.005Z,15.92
2019-05-22T04:37:30.508Z,15.97
2019-05-22T04:40:27.317Z,16.01
2019-05-22T04:43:00.813Z,16.05
2019-05-22T04:45:34.183Z,16.04
2019-05-22T04:48:07.154Z,15.97
2019-05-22T04:50:41.022Z,15.98
2019-05-22T04:53:13.703Z,16.01
2019-05-22T04:55:47.171Z,15.96
2019-05-22T04:58:22.729Z,15.96
2019-05-22T05:00:56.610Z,15.95
2019-05-22T05:03:30.996Z,15.95
2019-05-22T05:06:07.632Z,15.95
2019-05-22T05:08:41.197Z,15.98
2019-05-22T05:11:13.801Z,15.92
2019-05-22T05:13:47.509Z,15.89
2019-05-22T05:16:20.755Z,15.89
2019-05-22T05:18:54.340Z,15.96
2019-05-22T05:21:26.222Z,16.00
2019-05-22T05:23:58.638Z,16.16
2019-05-22T05:26:32.753Z,16.24
2019-05-22T05:29:04.975Z,16.21
2019-05-22T05:31:36.220Z,16.39
2019-05-22T05:34:19.115Z,16.28
2019-05-22T05:36:52.284Z,16.43
2019-05-22T05:39:39.870Z,16.41
2019-05-22T05:42:11.428Z,16.37
2019-05-22T05:44:42.615Z,16.26
2019-05-22T05:47:14.539Z,16.10
2019-05-22T05:49:45.717Z,16.15
2019-05-22T05:52:21.098Z,16.20
2019-05-22T05:54:53.302Z,16.35
2019-05-22T05:57:36.603Z,16.38
2019-05-22T06:00:11.672Z,16.43
2019-05-22T06:02:55.539Z,16.52
2019-05-22T06:05:17.239Z,16.50
2019-05-22T06:07:48.560Z,16.34
2019-05-22T06:10:30.395Z,16.39
2019-05-22T06:13:03.539Z,16.28
2019-05-22T06:15:48.053Z,16.26
2019-05-22T06:21:41.221Z,16.48
2019-05-22T06:24:25.797Z,16.35
2019-05-22T06:27:03.803Z,16.40
2019-05-22T06:29:42.398Z,16.48
2019-05-22T06:32:37.721Z,16.49
2019-05-22T06:35:10.110Z,16.42
2019-05-22T06:38:10.618Z,16.43
2019-05-22T06:40:42.266Z,16.68
2019-05-22T06:43:25.924Z,16.74
2019-05-22T06:45:57.670Z,16.51
2019-05-22T06:48:28.789Z,16.50
2019-05-22T06:51:00.455Z,16.52
2019-05-22T06:53:31.668Z,16.42
2019-05-22T06:56:02.798Z,16.62
2019-05-22T06:58:34.117Z,16.68
2019-05-22T07:01:05.975Z,16.68
2019-05-22T07:03:37.404Z,16.58
2019-05-22T07:06:09.010Z,16.29
2019-05-22T07:08:40.210Z,16.47
2019-05-22T07:11:11.757Z,16.65
2019-05-22T07:13:42.919Z,16.68
2019-05-22T07:16:14.097Z,16.72
2019-05-22T07:18:45.916Z,16.76
2019-05-22T07:21:17.376Z,16.58
2019-05-22T07:23:49.157Z,16.57
2019-05-22T07:26:20.337Z,16.40
2019-05-22T07:28:52.319Z,16.39
2019-05-22T07:31:23.617Z,16.37
2019-05-22T07:33:55.695Z,16.31
2019-05-22T07:36:27.818Z,16.31
2019-05-22T07:38:59.337Z,16.21
2019-05-22T07:41:30.956Z,16.14
2019-05-22T07:44:02.405Z,16.12
2019-05-22T07:46:33.838Z,16.10
2019-05-22T07:49:06.028Z,16.20
2019-05-22T07:51:53.308Z,16.18
2019-05-22T07:54:10.842Z,16.36
2019-05-22T07:56:44.296Z,16.54
2019-05-22T07:59:15.976Z,16.74
2019-05-22T08:01:47.521Z,16.89
2019-05-22T08:04:20.975Z,17.15
2019-05-22T08:06:52.584Z,17.17
2019-05-22T08:09:24.363Z,17.14
2019-05-22T08:11:56.622Z,17.29
2019-05-22T08:14:28.907Z,17.48
2019-05-22T08:17:01.416Z,17.43
2019-05-22T08:19:32.931Z,17.33
2019-05-22T08:22:07.519Z,17.01
2019-05-22T08:24:37.633Z,17.12
2019-05-22T08:27:09.391Z,17.21
2019-05-22T08:29:40.718Z,17.18
2019-05-22T08:32:12.100Z,17.31
2019-05-22T08:34:43.217Z,17.34
2019-05-22T08:37:17.277Z,17.05
2019-05-22T08:39:48.796Z,17.00
2019-05-22T08:42:21.796Z,16.94
2019-05-22T08:44:53.047Z,17.03
2019-05-22T08:47:24.147Z,17.13
2019-05-22T08:49:56.195Z,16.97
2019-05-22T08:52:30.669Z,16.83
2019-05-22T08:55:02.809Z,17.23
2019-05-22T08:57:35.552Z,17.31
2019-05-22T09:00:12.268Z,17.56
2019-05-22T09:02:41.972Z,17.93
2019-05-22T09:05:15.197Z,18.22
2019-05-22T09:07:48.078Z,18.14
2019-05-22T09:10:20.126Z,18.28
2019-05-22T09:12:51.592Z,18.29
2019-05-22T09:15:23.052Z,17.79
2019-05-22T09:17:54.170Z,17.57
2019-05-22T09:20:26.912Z,17.28
2019-05-22T09:22:59.931Z,16.93
2019-05-22T09:25:32.246Z,17.04
2019-05-22T09:28:05.381Z,17.03
2019-05-22T09:30:37.141Z,17.10
2019-05-22T09:33:11.790Z,17.18
2019-05-22T09:35:43.736Z,17.10
2019-05-22T09:38:17.954Z,17.15
2019-05-22T09:40:50.315Z,17.21
2019-05-22T09:43:22.170Z,17.05
2019-05-22T09:45:53.296Z,17.32
2019-05-22T09:48:24.511Z,17.38
2019-05-22T09:50:56.268Z,17.26
2019-05-22T09:53:28.866Z,17.26
2019-05-22T09:56:00.039Z,17.45
2019-05-22T09:58:31.339Z,17.50
2019-05-22T10:01:02.792Z,17.67
2019-05-22T10:03:34.377Z,17.91
2019-05-22T10:06:08.797Z,18.30
2019-05-22T10:08:41.498Z,18.67
2019-05-22T10:11:12.894Z,19.71
2019-05-22T10:13:44.216Z,19.98
2019-05-22T10:16:15.383Z,19.74
2019-05-22T10:18:46.950Z,19.58
2019-05-22T10:21:18.957Z,19.53
2019-05-22T10:23:50.833Z,19.64
2019-05-22T10:26:22.666Z,20.06
2019-05-22T10:28:54.506Z,20.15
2019-05-22T10:31:26.176Z,20.21
2019-05-22T10:33:57.347Z,20.63
2019-05-22T10:36:28.619Z,20.64
2019-05-22T10:39:00.012Z,20.79
2019-05-22T10:41:31.496Z,21.31
2019-05-22T10:44:02.932Z,20.77
2019-05-22T10:46:38.086Z,20.44
2019-05-22T10:49:10.123Z,19.98
2019-05-22T10:51:41.261Z,20.44
2019-05-22T10:54:12.828Z,20.22
2019-05-22T10:56:43.983Z,20.63
2019-05-22T10:59:15.111Z,20.96
2019-05-22T11:01:46.376Z,21.96
2019-05-22T11:04:19.866Z,22.36
2019-05-22T11:06:51.613Z,22.30
2019-05-22T11:09:23.859Z,21.61
2019-05-22T11:11:55.424Z,21.12
2019-05-22T11:14:26.896Z,20.98
2019-05-22T11:17:01.446Z,21.36
2019-05-22T11:19:32.059Z,22.19
2019-05-22T11:22:22.001Z,22.40
2019-05-22T11:24:53.301Z,22.26
2019-05-22T11:27:25.535Z,22.10
2019-05-22T11:29:57.328Z,21.93
2019-05-22T11:32:28.468Z,22.39
2019-05-22T11:34:59.774Z,22.55
2019-05-22T11:37:30.984Z,22.04
2019-05-22T11:40:02.417Z,22.50
2019-05-22T11:42:33.909Z,23.10
2019-05-22T11:45:11.942Z,22.98
2019-05-22T11:47:44.064Z,23.44
2019-05-22T11:50:16.785Z,23.62
2019-05-22T11:52:47.933Z,24.04
2019-05-22T11:55:19.358Z,23.21
2019-05-22T11:57:51.858Z,22.40
2019-05-22T12:00:24.913Z,22.06
2019-05-22T12:02:58.956Z,22.15
2019-05-22T12:05:30.822Z,22.38
2019-05-22T12:08:02.883Z,22.48
2019-05-22T12:10:34.338Z,22.31
2019-05-22T12:13:06.250Z,22.17
2019-05-22T12:15:39.691Z,21.91
2019-05-22T12:18:14.490Z,22.56
2019-05-22T12:20:46.739Z,22.93
2019-05-22T12:23:18.080Z,22.47
2019-05-22T12:25:49.901Z,22.27
2019-05-22T12:28:22.434Z,22.36
2019-05-22T12:30:55.012Z,22.47
2019-05-22T12:33:27.331Z,22.45
2019-05-22T12:35:58.755Z,22.41
2019-05-22T12:38:35.964Z,22.60
2019-05-22T12:41:10.011Z,23.48
2019-05-22T12:43:44.812Z,23.38
2019-05-22T12:46:14.596Z,22.94
2019-05-22T12:48:47.967Z,22.41
2019-05-22T12:51:20.874Z,22.59
2019-05-22T12:53:54.154Z,21.92
2019-05-22T12:56:31.647Z,21.72
2019-05-22T12:59:03.241Z,21.68
2019-05-22T13:01:35.003Z,21.37
2019-05-22T13:04:07.157Z,21.27
2019-05-22T13:06:38.306Z,21.18
2019-05-22T13:09:10.904Z,21.57
2019-05-22T13:11:43.069Z,21.63
2019-05-22T13:14:15.308Z,21.81
2019-05-22T13:16:49.172Z,21.90
2019-05-22T13:19:23.528Z,21.99
2019-05-22T13:21:56.960Z,22.20
2019-05-22T13:24:28.769Z,21.98
2019-05-22T13:27:01.560Z,21.85
2019-05-22T13:29:35.803Z,21.52
2019-05-22T13:32:08.001Z,21.40
2019-05-22T13:34:41.738Z,21.54
2019-05-22T13:37:13.254Z,21.34
2019-05-22T13:39:44.715Z,21.30
2019-05-22T13:42:16.015Z,21.81
2019-05-22T13:44:49.315Z,22.41
2019-05-22T13:47:21.756Z,22.09
2019-05-22T13:49:55.102Z,22.10
2019-05-22T13:52:27.635Z,21.89
2019-05-22T13:55:02.009Z,21.74
2019-05-22T13:57:35.401Z,22.01
2019-05-22T14:00:13.398Z,22.08
2019-05-22T14:02:47.370Z,21.40
2019-05-22T14:05:19.448Z,21.12
2019-05-22T14:07:51.171Z,20.84
2019-05-22T14:10:27.303Z,20.98
2019-05-22T14:12:58.738Z,20.77
2019-05-22T14:15:48.224Z,20.67
2019-05-22T14:18:04.327Z,21.04
2019-05-22T14:20:41.362Z,21.34
2019-05-22T14:23:14.060Z,21.00
2019-05-22T14:25:47.383Z,20.51
2019-05-22T14:28:21.755Z,20.44
2019-05-22T14:30:54.784Z,20.51
2019-05-22T14:33:28.285Z,20.42
2019-05-22T14:36:06.491Z,19.97
2019-05-22T14:38:41.993Z,19.47
2019-05-22T14:41:14.545Z,19.45
2019-05-22T14:43:46.349Z,19.17
2019-05-22T14:46:24.296Z,18.99
2019-05-22T14:48:58.829Z,18.79
2019-05-22T14:51:30.726Z,18.75
2019-05-22T14:54:02.697Z,18.62
2019-05-22T14:56:35.968Z,18.42
2019-05-22T14:59:08.229Z,18.40
2019-05-22T15:01:40.768Z,18.51
2019-05-22T15:04:12.700Z,18.71
2019-05-22T15:06:44.714Z,18.81
2019-05-22T15:09:16.268Z,18.65
2019-05-22T15:11:48.727Z,18.25
2019-05-22T15:14:19.998Z,17.81
2019-05-22T15:16:51.625Z,17.72
2019-05-22T15:19:22.984Z,17.73
2019-05-22T15:21:54.502Z,17.63
2019-05-22T15:24:27.199Z,17.45
2019-05-22T15:26:58.900Z,17.20
2019-05-22T15:29:30.737Z,17.07
2019-05-22T15:32:02.473Z,17.12
2019-05-22T15:34:34.774Z,17.00
2019-05-22T15:37:10.147Z,16.94
2019-05-22T15:39:42.427Z,16.84
2019-05-22T15:42:32.145Z,16.84
2019-05-22T15:45:07.603Z,16.66
2019-05-22T15:47:53.667Z,16.47
2019-05-22T15:50:17.796Z,16.12
2019-05-22T15:53:00.372Z,15.90
2019-05-22T15:55:34.216Z,15.83
2019-05-22T15:58:06.979Z,15.74
2019-05-22T16:00:40.754Z,15.67
2019-05-22T16:03:15.839Z,15.59
2019-05-22T16:05:50.846Z,15.48
2019-05-22T16:08:23.340Z,15.40
2019-05-22T16:11:00.074Z,15.42
2019-05-22T16:13:33.259Z,15.42
2019-05-22T16:16:06.949Z,15.42
2019-05-22T16:18:40.618Z,15.43
2019-05-22T16:21:12.574Z,15.40
2019-05-22T16:23:55.972Z,15.39
2019-05-22T16:26:28.597Z,15.34
2019-05-22T16:29:01.602Z,15.39
2019-05-22T16:31:33.744Z,15.34
2019-05-22T16:34:05.398Z,15.31
2019-05-22T16:36:37.157Z,15.29
2019-05-22T16:39:11.240Z,15.28
2019-05-22T16:41:43.314Z,15.15
2019-05-22T16:44:16.708Z,15.09
2019-05-22T16:46:49.995Z,15.05
2019-05-22T16:49:21.251Z,15.02
2019-05-22T16:51:55.221Z,14.97
2019-05-22T16:54:29.767Z,14.89
2019-05-22T16:57:02.456Z,14.86
2019-05-22T16:59:37.001Z,14.83
2019-05-22T17:02:10.043Z,14.82
2019-05-22T17:04:42.073Z,14.84
2019-05-22T17:07:14.243Z,14.84
2019-05-22T17:09:47.459Z,14.86
2019-05-22T17:12:20.544Z,14.85
2019-05-22T17:14:54.862Z,14.81
2019-05-22T17:17:27.761Z,14.78
2019-05-22T17:19:59.794Z,14.77
2019-05-22T17:22:33.222Z,14.77
2019-05-22T17:25:08.295Z,14.76
2019-05-22T17:27:41.343Z,14.74
2019-05-22T17:30:20.476Z,14.73
2019-05-22T17:32:49.168Z,14.72
2019-05-22T17:35:22.175Z,14.72
2019-05-22T17:37:53.842Z,14.71
2019-05-22T17:40:26.181Z,14.70
2019-05-22T17:42:58.475Z,14.70
2019-05-22T17:45:31.615Z,14.67
2019-05-22T17:48:04.869Z,14.66
2019-05-22T17:50:36.293Z,14.68
2019-05-22T17:53:08.017Z,14.61
2019-05-22T17:55:42.402Z,14.58
2019-05-22T17:58:15.379Z,14.53
2019-05-22T18:00:52.347Z,14.51
2019-05-22T18:03:25.541Z,14.49
2019-05-22T18:05:59.105Z,14.44
2019-05-22T18:08:32.488Z,14.44
2019-05-22T18:11:08.077Z,14.41
2019-05-22T18:14:03.724Z,14.40
2019-05-22T18:16:35.703Z,14.39
2019-05-22T18:19:08.066Z,14.42
2019-05-22T18:21:41.468Z,14.38
2019-05-22T18:24:13.354Z,14.36
2019-05-22T18:26:44.752Z,14.42
2019-05-22T18:29:17.243Z,14.43
2019-05-22T18:31:48.608Z,14.37
2019-05-22T18:34:20.070Z,14.37
2019-05-22T18:36:51.487Z,14.35
2019-05-22T18:39:22.974Z,14.36
2019-05-22T18:41:54.403Z,14.33
2019-05-22T18:44:25.748Z,14.31
2019-05-22T18:46:59.168Z,14.31
2019-05-22T18:49:32.327Z,14.30
2019-05-22T18:52:04.470Z,14.28
2019-05-22T18:54:35.927Z,14.30
2019-05-22T18:57:07.390Z,14.33
2019-05-22T18:59:40.126Z,14.35
2019-05-22T19:02:12.469Z,14.29
2019-05-22T19:04:43.859Z,14.29
2019-05-22T19:07:15.444Z,14.30
2019-05-22T19:09:46.807Z,14.27
2019-05-22T19:12:19.405Z,14.25
2019-05-22T19:14:50.866Z,14.24
2019-05-22T19:17:22.969Z,14.24
2019-05-22T19:19:54.314Z,14.22
2019-05-22T19:22:25.965Z,14.21
2019-05-22T19:24:57.188Z,14.23
2019-05-22T19:27:28.331Z,14.17
2019-05-22T19:29:59.451Z,14.19
2019-05-22T19:32:31.391Z,14.16
